TimeCST,TemperatureF,Dew PointF,Humidity,Sea Level PressureIn,VisibilityMPH,Wind Direction,Wind SpeedMPH,Gust SpeedMPH,PrecipitationIn,Events,Conditions,WindDirDegrees,DateUTC
12:14 AM,1.4,-2.2,85,30.20,10.0,West,8.1,-,N/A,,Overcast,270,2013-02-15 06:14:00
12:33 AM,1.4,-0.4,92,30.20,10.0,WNW,9.2,-,N/A,,Mostly Cloudy,290,2013-02-15 06:33:00
12:53 AM,1.4,-2.2,85,30.20,10.0,WNW,9.2,-,N/A,,Clear,290,2013-02-15 06:53:00
1:13 AM,1.4,-2.2,85,30.20,10.0,West,10.4,-,N/A,,Clear,280,2013-02-15 07:13:00
1:33 AM,1.4,-0.4,92,30.20,10.0,WNW,10.4,-,N/A,,Scattered Clouds,290,2013-02-15 07:33:00
1:53 AM,3.2,1.4,92,30.20,10.0,WNW,10.4,-,N/A,,Mostly Cloudy,300,2013-02-15 07:53:00
2:13 AM,3.2,1.4,92,30.20,10.0,WNW,6.9,-,N/A,,Overcast,290,2013-02-15 08:13:00
2:33 AM,-0.4,-2.2,92,30.21,10.0,West,8.1,-,N/A,,Scattered Clouds,270,2013-02-15 08:33:00
2:53 AM,-0.4,-2.2,92,30.22,10.0,West,5.8,-,N/A,,Clear,280,2013-02-15 08:53:00
3:13 AM,-0.4,-4.0,85,30.22,10.0,WNW,8.1,-,N/A,,Clear,290,2013-02-15 09:13:00
3:33 AM,-0.4,-4.0,85,30.22,10.0,WNW,6.9,-,N/A,,Clear,290,2013-02-15 09:33:00
3:53 AM,-2.2,-5.8,85,30.22,10.0,WNW,9.2,-,N/A,,Clear,290,2013-02-15 09:53:00
4:13 AM,-2.2,-5.8,85,30.22,10.0,WNW,8.1,-,N/A,,Clear,300,2013-02-15 10:13:00
4:33 AM,-2.2,-5.8,85,30.23,10.0,WNW,6.9,-,N/A,,Scattered Clouds,300,2013-02-15 10:33:00
4:54 AM,-5.8,-7.6,92,30.23,10.0,WNW,8.1,-,N/A,,Scattered Clouds,300,2013-02-15 10:54:00
5:13 AM,-5.8,-9.4,84,30.23,10.0,WNW,8.1,-,N/A,,Clear,300,2013-02-15 11:13:00
5:33 AM,-4.0,-7.6,85,30.24,10.0,NW,6.9,-,N/A,,Clear,310,2013-02-15 11:33:00
5:54 AM,-4.0,-7.6,85,30.24,10.0,NW,6.9,-,N/A,,Clear,310,2013-02-15 11:54:00
6:13 AM,-2.2,-5.8,85,30.25,10.0,NW,8.1,-,N/A,,Clear,310,2013-02-15 12:13:00
6:33 AM,-2.2,-5.8,85,30.25,10.0,WNW,8.1,-,N/A,,Clear,300,2013-02-15 12:33:00
6:54 AM,-5.8,-7.6,92,30.25,10.0,WNW,5.8,-,N/A,,Clear,300,2013-02-15 12:54:00
7:13 AM,-5.8,-7.6,92,30.25,10.0,NW,4.6,-,N/A,,Clear,310,2013-02-15 13:13:00
7:33 AM,-4.0,-7.6,85,30.26,10.0,WNW,5.8,-,N/A,,Clear,300,2013-02-15 13:33:00
7:54 AM,-4.0,-7.6,85,30.27,10.0,Calm,Calm,-,N/A,,Clear,0,2013-02-15 13:54:00
8:13 AM,-2.2,-5.8,85,30.27,10.0,NW,3.5,-,N/A,,Clear,320,2013-02-15 14:13:00
8:33 AM,-2.2,-5.8,85,30.28,10.0,NNW,3.5,-,N/A,,Clear,330,2013-02-15 14:33:00
8:54 AM,-0.4,-2.2,92,30.29,10.0,NNW,4.6,-,N/A,,Clear,330,2013-02-15 14:54:00
9:13 AM,-0.4,-2.2,92,30.29,10.0,Calm,Calm,-,N/A,,Clear,0,2013-02-15 15:13:00
9:33 AM,1.4,-0.4,92,30.30,10.0,NW,6.9,-,N/A,,Clear,310,2013-02-15 15:33:00
9:53 AM,3.2,-0.4,85,30.30,10.0,NW,5.8,-,N/A,,Clear,310,2013-02-15 15:53:00
10:13 AM,3.2,1.4,92,30.30,10.0,WNW,5.8,-,N/A,,Clear,300,2013-02-15 16:13:00
10:33 AM,5.0,1.4,85,30.29,7.0,NW,4.6,-,N/A,,Clear,310,2013-02-15 16:33:00
10:53 AM,6.8,3.2,85,30.30,10.0,NW,4.6,-,N/A,,Clear,320,2013-02-15 16:53:00
11:13 AM,6.8,5.0,92,30.30,10.0,NW,5.8,-,N/A,,Clear,310,2013-02-15 17:13:00
11:53 AM,10.4,5.0,79,30.30,10.0,WNW,5.8,-,N/A,,Clear,290,2013-02-15 17:53:00
12:13 PM,10.4,5.0,79,30.30,10.0,WNW,6.9,-,N/A,,Clear,290,2013-02-15 18:13:00
12:33 PM,12.2,5.0,73,30.30,10.0,WNW,6.9,-,N/A,,Clear,300,2013-02-15 18:33:00
12:53 PM,14.0,5.0,67,30.30,10.0,WNW,8.1,-,N/A,,Clear,290,2013-02-15 18:53:00
1:13 PM,14.0,3.2,62,30.29,10.0,West,8.1,-,N/A,,Clear,280,2013-02-15 19:13:00
1:33 PM,14.0,3.2,62,30.29,10.0,West,9.2,-,N/A,,Clear,280,2013-02-15 19:33:00
1:53 PM,14.0,3.2,62,30.28,10.0,West,9.2,-,N/A,,Clear,280,2013-02-15 19:53:00
2:13 PM,14.0,3.2,62,30.28,10.0,WNW,10.4,-,N/A,,Clear,290,2013-02-15 20:13:00
2:33 PM,14.0,5.0,67,30.28,10.0,West,11.5,-,N/A,,Clear,280,2013-02-15 20:33:00
2:53 PM,12.2,3.2,67,30.29,10.0,West,10.4,-,N/A,,Clear,280,2013-02-15 20:53:00
3:13 PM,12.2,3.2,67,30.29,10.0,West,11.5,-,N/A,,Clear,280,2013-02-15 21:13:00
3:33 PM,12.2,3.2,67,30.29,10.0,West,10.4,-,N/A,,Clear,280,2013-02-15 21:33:00
3:53 PM,10.4,3.2,73,30.29,10.0,West,9.2,-,N/A,,Clear,280,2013-02-15 21:53:00
4:13 PM,10.4,3.2,73,30.28,10.0,West,10.4,-,N/A,,Clear,280,2013-02-15 22:13:00
4:33 PM,8.6,3.2,79,30.28,10.0,West,12.7,-,N/A,,Clear,280,2013-02-15 22:33:00
4:53 PM,8.6,3.2,79,30.28,10.0,West,11.5,-,N/A,,Clear,280,2013-02-15 22:53:00
5:13 PM,6.8,1.4,79,30.28,10.0,West,11.5,-,N/A,,Clear,280,2013-02-15 23:13:00
5:34 PM,6.8,1.4,79,30.28,10.0,West,10.4,-,N/A,,Clear,270,2013-02-15 23:34:00
5:53 PM,3.2,1.4,92,30.28,10.0,West,11.5,-,N/A,,Clear,270,2013-02-15 23:53:00
6:13 PM,3.2,1.4,92,30.28,10.0,West,11.5,-,N/A,,Clear,270,2013-02-16 00:13:00
6:34 PM,1.4,-0.4,92,30.28,10.0,West,11.5,-,N/A,,Clear,280,2013-02-16 00:34:00
6:53 PM,1.4,-0.4,92,30.28,10.0,West,11.5,-,N/A,,Clear,280,2013-02-16 00:53:00
7:13 PM,1.4,-0.4,92,30.27,10.0,West,8.1,-,N/A,,Clear,280,2013-02-16 01:13:00
7:33 PM,1.4,-0.4,92,30.27,10.0,WNW,9.2,-,N/A,,Clear,290,2013-02-16 01:33:00
7:53 PM,1.4,-2.2,85,30.27,7.0,West,6.9,-,N/A,,Scattered Clouds,280,2013-02-16 01:53:00
8:13 PM,-0.4,-2.2,92,30.27,10.0,West,5.8,-,N/A,,Scattered Clouds,280,2013-02-16 02:13:00
8:33 PM,-0.4,-2.2,92,30.26,10.0,West,5.8,-,N/A,,Clear,270,2013-02-16 02:33:00
8:53 PM,-0.4,-2.2,92,30.26,10.0,West,4.6,-,N/A,,Clear,280,2013-02-16 02:53:00
9:13 PM,-0.4,-2.2,92,30.26,7.0,West,5.8,-,N/A,Snow,Light Snow,280,2013-02-16 03:13:00
9:33 PM,1.4,-0.4,92,30.25,7.0,West,4.6,-,N/A,Snow,Light Snow,280,2013-02-16 03:33:00
9:53 PM,3.2,1.4,92,30.25,7.0,West,4.6,-,N/A,Snow,Light Snow,280,2013-02-16 03:53:00
10:13 PM,3.2,1.4,92,30.24,7.0,West,3.5,-,N/A,Snow,Light Snow,280,2013-02-16 04:13:00
10:33 PM,6.8,3.2,85,30.24,7.0,WNW,4.6,-,N/A,Snow,Light Snow,290,2013-02-16 04:33:00
10:53 PM,6.8,5.0,92,30.23,5.0,West,3.5,-,N/A,Snow,Light Snow,280,2013-02-16 04:53:00
11:13 PM,6.8,6.8,100,30.22,7.0,West,6.9,-,N/A,Snow,Light Snow,280,2013-02-16 05:13:00
11:33 PM,6.8,6.8,100,30.22,7.0,West,4.6,-,N/A,Snow,Light Snow,270,2013-02-16 05:33:00
11:53 PM,6.8,6.8,100,30.22,7.0,West,4.6,-,N/A,Snow,Light Snow,280,2013-02-16 05:53:00